sensor_id;sensor_type;location;lat;lon;timestamp;P1;P2;P0
44933;PMS3003;30667;43.614;1.442;2023-02-28T00:02:20;14.75;12.75;7.00
44933;PMS3003;30667;43.614;1.442;2023-02-28T00:04:45;16.75;15.00;7.25
44933;PMS3003;30667;43.614;1.442;2023-02-28T00:07:17;12.00;11.20;6.80
44933;PMS3003;30667;43.614;1.442;2023-02-28T00:09:43;10.25;10.00;4.00
44933;PMS3003;30667;43.614;1.442;2023-02-28T00:12:08;13.75;13.75;7.00
44933;PMS3003;30667;43.614;1.442;2023-02-28T00:14:35;14.20;12.20;6.20
44933;PMS3003;30667;43.614;1.442;2023-02-28T00:17:01;13.60;12.00;6.40
44933;PMS3003;30667;43.614;1.442;2023-02-28T00:19:27;14.50;14.00;7.00
44933;PMS3003;30667;43.614;1.442;2023-02-28T00:21:52;13.25;12.75;7.00
44933;PMS3003;30667;43.614;1.442;2023-02-28T00:24:18;15.00;14.50;7.50
44933;PMS3003;30667;43.614;1.442;2023-02-28T00:26:43;13.25;13.00;7.00
44933;PMS3003;30667;43.614;1.442;2023-02-28T00:29:09;15.00;14.00;7.75
44933;PMS3003;30667;43.614;1.442;2023-02-28T00:31:35;12.00;11.80;6.80
44933;PMS3003;30667;43.614;1.442;2023-02-28T00:34:00;17.00;17.00;9.25
44933;PMS3003;30667;43.614;1.442;2023-02-28T00:36:25;13.75;13.00;7.00
44933;PMS3003;30667;43.614;1.442;2023-02-28T00:38:51;14.50;12.00;7.00
44933;PMS3003;30667;43.614;1.442;2023-02-28T00:41:17;13.80;13.80;7.00
44933;PMS3003;30667;43.614;1.442;2023-02-28T00:43:42;14.75;11.75;6.50
44933;PMS3003;30667;43.614;1.442;2023-02-28T00:46:08;14.75;14.00;6.50
44933;PMS3003;30667;43.614;1.442;2023-02-28T00:48:33;19.00;14.00;7.00
44933;PMS3003;30667;43.614;1.442;2023-02-28T00:50:59;15.00;14.25;8.00
44933;PMS3003;30667;43.614;1.442;2023-02-28T00:53:25;15.00;14.40;7.80
44933;PMS3003;30667;43.614;1.442;2023-02-28T00:55:50;14.00;12.00;6.50
44933;PMS3003;30667;43.614;1.442;2023-02-28T00:58:16;16.25;14.00;6.00
44933;PMS3003;30667;43.614;1.442;2023-02-28T01:00:41;15.50;13.50;8.00
44933;PMS3003;30667;43.614;1.442;2023-02-28T01:03:07;15.00;13.75;6.00
44933;PMS3003;30667;43.614;1.442;2023-02-28T01:05:32;12.00;11.00;6.00
44933;PMS3003;30667;43.614;1.442;2023-02-28T01:07:57;14.75;13.25;9.00
44933;PMS3003;30667;43.614;1.442;2023-02-28T01:10:23;13.50;13.50;7.25
44933;PMS3003;30667;43.614;1.442;2023-02-28T01:12:49;16.60;14.80;7.80
44933;PMS3003;30667;43.614;1.442;2023-02-28T01:15:15;16.75;14.00;8.50
44933;PMS3003;30667;43.614;1.442;2023-02-28T01:17:40;15.50;14.50;8.75
44933;PMS3003;30667;43.614;1.442;2023-02-28T01:20:06;14.00;13.25;8.25
44933;PMS3003;30667;43.614;1.442;2023-02-28T01:22:31;14.00;13.40;7.80
44933;PMS3003;30667;43.614;1.442;2023-02-28T01:24:57;14.50;14.00;7.25
44933;PMS3003;30667;43.614;1.442;2023-02-28T01:27:22;12.25;12.00;8.00
44933;PMS3003;30667;43.614;1.442;2023-02-28T01:29:48;12.25;12.25;8.50
44933;PMS3003;30667;43.614;1.442;2023-02-28T01:32:13;14.75;13.75;8.75
44933;PMS3003;30667;43.614;1.442;2023-02-28T01:34:38;14.00;14.00;8.25
44933;PMS3003;30667;43.614;1.442;2023-02-28T01:37:04;15.00;12.00;7.75
44933;PMS3003;30667;43.614;1.442;2023-02-28T01:39:29;14.75;14.75;9.00
44933;PMS3003;30667;43.614;1.442;2023-02-28T01:41:55;15.75;14.00;8.25
44933;PMS3003;30667;43.614;1.442;2023-02-28T01:47:33;13.20;13.20;7.20
44933;PMS3003;30667;43.614;1.442;2023-02-28T01:50:04;15.20;14.00;7.80
44933;PMS3003;30667;43.614;1.442;2023-02-28T01:52:33;15.20;14.40;8.60
44933;PMS3003;30667;43.614;1.442;2023-02-28T01:54:59;17.20;16.60;9.00
44933;PMS3003;30667;43.614;1.442;2023-02-28T01:57:34;16.60;15.60;9.00
44933;PMS3003;30667;43.614;1.442;2023-02-28T02:00:05;15.80;15.40;9.00
44933;PMS3003;30667;43.614;1.442;2023-02-28T02:02:35;16.00;15.60;7.80
44933;PMS3003;30667;43.614;1.442;2023-02-28T02:05:09;16.80;14.00;7.80
44933;PMS3003;30667;43.614;1.442;2023-02-28T02:07:46;17.80;14.80;7.80
44933;PMS3003;30667;43.614;1.442;2023-02-28T02:10:16;16.40;14.00;8.40
44933;PMS3003;30667;43.614;1.442;2023-02-28T02:12:56;14.80;14.80;7.80
44933;PMS3003;30667;43.614;1.442;2023-02-28T02:15:35;17.00;15.80;9.00
44933;PMS3003;30667;43.614;1.442;2023-02-28T02:37:57;17.80;16.20;8.80
44933;PMS3003;30667;43.614;1.442;2023-02-28T02:40:43;14.20;14.20;8.00
44933;PMS3003;30667;43.614;1.442;2023-02-28T02:46:10;18.60;17.80;9.00
44933;PMS3003;30667;43.614;1.442;2023-02-28T02:48:43;16.00;13.00;8.20
44933;PMS3003;30667;43.614;1.442;2023-02-28T02:51:12;17.20;16.40;9.00
44933;PMS3003;30667;43.614;1.442;2023-02-28T02:53:51;17.00;15.60;8.20
44933;PMS3003;30667;43.614;1.442;2023-02-28T02:56:23;16.60;15.20;9.00
44933;PMS3003;30667;43.614;1.442;2023-02-28T02:58:53;17.20;17.00;9.00
44933;PMS3003;30667;43.614;1.442;2023-02-28T03:01:24;14.00;14.00;9.00
44933;PMS3003;30667;43.614;1.442;2023-02-28T03:03:56;14.00;13.40;8.80
44933;PMS3003;30667;43.614;1.442;2023-02-28T03:06:25;19.00;17.00;10.20
44933;PMS3003;30667;43.614;1.442;2023-02-28T03:08:51;17.00;17.00;9.00
44933;PMS3003;30667;43.614;1.442;2023-02-28T03:11:17;17.50;16.75;9.00
44933;PMS3003;30667;43.614;1.442;2023-02-28T03:13:58;20.40;16.00;9.00
44933;PMS3003;30667;43.614;1.442;2023-02-28T03:17:45;20.20;18.20;9.80
44933;PMS3003;30667;43.614;1.442;2023-02-28T03:22:26;17.00;16.00;9.00
44933;PMS3003;30667;43.614;1.442;2023-02-28T03:27:54;19.60;16.00;9.00
44933;PMS3003;30667;43.614;1.442;2023-02-28T03:33:58;14.00;14.00;8.60
44933;PMS3003;30667;43.614;1.442;2023-02-28T03:36:29;15.00;15.00;8.20
44933;PMS3003;30667;43.614;1.442;2023-02-28T03:39:04;18.00;16.20;9.20
44933;PMS3003;30667;43.614;1.442;2023-02-28T03:41:37;18.20;18.00;9.60
44933;PMS3003;30667;43.614;1.442;2023-02-28T03:44:12;15.80;15.80;7.80
44933;PMS3003;30667;43.614;1.442;2023-02-28T03:46:42;20.00;17.80;9.20
44933;PMS3003;30667;43.614;1.442;2023-02-28T03:49:17;20.80;17.00;10.20
44933;PMS3003;30667;43.614;1.442;2023-02-28T03:51:49;14.60;14.60;8.80
44933;PMS3003;30667;43.614;1.442;2023-02-28T03:54:18;19.40;17.40;11.20
44933;PMS3003;30667;43.614;1.442;2023-02-28T03:56:57;20.00;17.80;9.00
44933;PMS3003;30667;43.614;1.442;2023-02-28T03:59:37;21.80;18.40;10.20
44933;PMS3003;30667;43.614;1.442;2023-02-28T04:02:08;17.00;17.00;11.00
44933;PMS3003;30667;43.614;1.442;2023-02-28T04:04:34;17.25;16.75;9.25
44933;PMS3003;30667;43.614;1.442;2023-02-28T04:07:08;21.75;19.00;12.25
44933;PMS3003;30667;43.614;1.442;2023-02-28T04:09:34;19.60;17.20;11.00
44933;PMS3003;30667;43.614;1.442;2023-02-28T04:11:59;20.75;19.00;11.00
44933;PMS3003;30667;43.614;1.442;2023-02-28T04:14:25;17.00;17.00;8.75
44933;PMS3003;30667;43.614;1.442;2023-02-28T04:16:50;23.00;19.25;9.25
44933;PMS3003;30667;43.614;1.442;2023-02-28T04:19:16;19.80;19.80;11.00
44933;PMS3003;30667;43.614;1.442;2023-02-28T04:21:46;18.50;16.00;9.00
44933;PMS3003;30667;43.614;1.442;2023-02-28T04:24:15;18.80;17.40;9.00
44933;PMS3003;30667;43.614;1.442;2023-02-28T04:26:46;19.00;18.60;11.00
44933;PMS3003;30667;43.614;1.442;2023-02-28T04:29:13;19.00;18.60;9.00
44933;PMS3003;30667;43.614;1.442;2023-02-28T04:31:43;18.00;17.80;9.00
44933;PMS3003;30667;43.614;1.442;2023-02-28T04:34:09;19.25;18.00;9.00
44933;PMS3003;30667;43.614;1.442;2023-02-28T04:36:34;19.25;16.00;9.75
44933;PMS3003;30667;43.614;1.442;2023-02-28T04:39:00;17.00;16.00;9.00
44933;PMS3003;30667;43.614;1.442;2023-02-28T04:41:25;20.25;15.00;10.50
44933;PMS3003;30667;43.614;1.442;2023-02-28T04:43:51;21.00;19.00;9.75
44933;PMS3003;30667;43.614;1.442;2023-02-28T04:46:17;18.60;18.00;9.60
44933;PMS3003;30667;43.614;1.442;2023-02-28T04:48:43;23.75;18.75;11.50
44933;PMS3003;30667;43.614;1.442;2023-02-28T04:51:10;20.20;18.20;9.80
44933;PMS3003;30667;43.614;1.442;2023-02-28T04:53:38;17.80;16.40;11.00
44933;PMS3003;30667;43.614;1.442;2023-02-28T04:56:06;18.20;17.40;9.40
44933;PMS3003;30667;43.614;1.442;2023-02-28T04:58:32;17.40;15.60;8.60
44933;PMS3003;30667;43.614;1.442;2023-02-28T05:01:04;19.00;17.00;9.25
44933;PMS3003;30667;43.614;1.442;2023-02-28T05:03:37;24.80;17.60;9.00
44933;PMS3003;30667;43.614;1.442;2023-02-28T05:06:05;19.40;18.40;11.00
44933;PMS3003;30667;43.614;1.442;2023-02-28T05:08:31;17.80;16.20;9.60
44933;PMS3003;30667;43.614;1.442;2023-02-28T05:10:56;20.00;18.50;12.25
44933;PMS3003;30667;43.614;1.442;2023-02-28T05:13:22;17.50;16.25;10.25
44933;PMS3003;30667;43.614;1.442;2023-02-28T05:15:47;20.25;17.00;11.00
44933;PMS3003;30667;43.614;1.442;2023-02-28T05:18:13;23.75;21.25;13.00
44933;PMS3003;30667;43.614;1.442;2023-02-28T05:20:38;18.25;18.00;11.00
44933;PMS3003;30667;43.614;1.442;2023-02-28T05:23:04;20.00;18.00;10.75
44933;PMS3003;30667;43.614;1.442;2023-02-28T05:25:29;21.25;19.00;9.25
44933;PMS3003;30667;43.614;1.442;2023-02-28T05:27:54;18.75;18.00;10.00
44933;PMS3003;30667;43.614;1.442;2023-02-28T05:30:20;20.50;17.75;10.75
44933;PMS3003;30667;43.614;1.442;2023-02-28T05:32:49;23.25;20.00;12.25
44933;PMS3003;30667;43.614;1.442;2023-02-28T05:35:15;18.60;18.20;9.00
44933;PMS3003;30667;43.614;1.442;2023-02-28T05:37:41;23.00;19.25;13.00
44933;PMS3003;30667;43.614;1.442;2023-02-28T05:40:06;23.00;21.00;11.75
44933;PMS3003;30667;43.614;1.442;2023-02-28T05:42:35;20.60;20.60;12.80
44933;PMS3003;30667;43.614;1.442;2023-02-28T05:45:01;22.00;20.40;10.00
44933;PMS3003;30667;43.614;1.442;2023-02-28T05:47:26;21.50;19.00;11.00
44933;PMS3003;30667;43.614;1.442;2023-02-28T05:49:51;23.50;19.25;11.75
44933;PMS3003;30667;43.614;1.442;2023-02-28T05:52:17;24.25;19.00;11.75
44933;PMS3003;30667;43.614;1.442;2023-02-28T05:54:42;22.50;19.25;11.00
44933;PMS3003;30667;43.614;1.442;2023-02-28T05:57:08;23.50;19.00;12.25
44933;PMS3003;30667;43.614;1.442;2023-02-28T05:59:33;29.75;24.00;12.25
44933;PMS3003;30667;43.614;1.442;2023-02-28T06:01:59;29.00;24.00;14.00
44933;PMS3003;30667;43.614;1.442;2023-02-28T06:04:24;23.00;21.00;13.00
44933;PMS3003;30667;43.614;1.442;2023-02-28T06:06:50;21.25;20.75;13.00
44933;PMS3003;30667;43.614;1.442;2023-02-28T06:09:16;28.80;25.60;13.80
44933;PMS3003;30667;43.614;1.442;2023-02-28T06:11:42;22.80;21.20;13.60
44933;PMS3003;30667;43.614;1.442;2023-02-28T06:14:12;24.00;22.40;14.00
44933;PMS3003;30667;43.614;1.442;2023-02-28T06:16:41;22.80;22.80;13.00
44933;PMS3003;30667;43.614;1.442;2023-02-28T06:19:06;27.25;25.25;15.50
44933;PMS3003;30667;43.614;1.442;2023-02-28T06:21:31;30.75;24.00;13.25
44933;PMS3003;30667;43.614;1.442;2023-02-28T06:23:57;21.25;19.75;14.00
44933;PMS3003;30667;43.614;1.442;2023-02-28T06:26:23;23.60;22.00;12.80
44933;PMS3003;30667;43.614;1.442;2023-02-28T06:28:49;24.60;22.20;15.40
44933;PMS3003;30667;43.614;1.442;2023-02-28T06:31:16;24.00;24.00;15.75
44933;PMS3003;30667;43.614;1.442;2023-02-28T06:33:43;26.20;22.60;13.40
44933;PMS3003;30667;43.614;1.442;2023-02-28T06:36:10;22.60;22.00;14.00
44933;PMS3003;30667;43.614;1.442;2023-02-28T06:38:36;27.80;23.20;13.20
44933;PMS3003;30667;43.614;1.442;2023-02-28T06:41:02;23.20;21.40;12.80
44933;PMS3003;30667;43.614;1.442;2023-02-28T06:43:29;24.80;23.60;15.60
44933;PMS3003;30667;43.614;1.442;2023-02-28T06:46:00;26.80;23.20;14.60
44933;PMS3003;30667;43.614;1.442;2023-02-28T06:48:27;26.80;23.20;12.00
44933;PMS3003;30667;43.614;1.442;2023-02-28T06:51:00;28.00;25.25;13.75
44933;PMS3003;30667;43.614;1.442;2023-02-28T06:53:36;26.40;24.00;14.00
44933;PMS3003;30667;43.614;1.442;2023-02-28T06:56:08;24.20;23.80;14.00
44933;PMS3003;30667;43.614;1.442;2023-02-28T06:58:36;26.20;24.20;14.00
44933;PMS3003;30667;43.614;1.442;2023-02-28T07:01:02;25.80;24.80;16.00
44933;PMS3003;30667;43.614;1.442;2023-02-28T07:03:28;23.00;23.00;14.20
44933;PMS3003;30667;43.614;1.442;2023-02-28T07:05:54;28.40;25.20;16.00
44933;PMS3003;30667;43.614;1.442;2023-02-28T07:08:21;22.20;21.80;14.00
44933;PMS3003;30667;43.614;1.442;2023-02-28T07:10:47;25.60;23.00;14.00
44933;PMS3003;30667;43.614;1.442;2023-02-28T07:13:17;24.80;23.60;16.80
44933;PMS3003;30667;43.614;1.442;2023-02-28T07:15:42;27.00;26.00;16.00
44933;PMS3003;30667;43.614;1.442;2023-02-28T07:18:08;20.00;19.00;12.00
44933;PMS3003;30667;43.614;1.442;2023-02-28T07:20:33;29.00;25.50;16.50
44933;PMS3003;30667;43.614;1.442;2023-02-28T07:22:58;23.75;23.75;14.25
44933;PMS3003;30667;43.614;1.442;2023-02-28T07:25:25;23.50;23.00;14.00
44933;PMS3003;30667;43.614;1.442;2023-02-28T07:27:51;24.00;23.20;14.20
44933;PMS3003;30667;43.614;1.442;2023-02-28T07:30:17;23.50;23.00;14.25
44933;PMS3003;30667;43.614;1.442;2023-02-28T07:32:43;25.60;24.00;13.80
44933;PMS3003;30667;43.614;1.442;2023-02-28T07:35:09;21.75;19.50;12.00
44933;PMS3003;30667;43.614;1.442;2023-02-28T07:37:34;22.50;21.50;13.75
44933;PMS3003;30667;43.614;1.442;2023-02-28T07:40:06;22.20;20.80;12.80
44933;PMS3003;30667;43.614;1.442;2023-02-28T07:42:33;23.40;21.80;13.40
44933;PMS3003;30667;43.614;1.442;2023-02-28T07:45:00;24.20;21.60;13.20
44933;PMS3003;30667;43.614;1.442;2023-02-28T07:47:25;24.25;23.75;14.00
44933;PMS3003;30667;43.614;1.442;2023-02-28T07:49:51;27.00;24.50;16.00
44933;PMS3003;30667;43.614;1.442;2023-02-28T07:52:16;25.50;23.75;14.00
44933;PMS3003;30667;43.614;1.442;2023-02-28T07:54:41;24.00;22.75;14.00
44933;PMS3003;30667;43.614;1.442;2023-02-28T07:57:07;25.50;22.00;14.00
44933;PMS3003;30667;43.614;1.442;2023-02-28T07:59:32;30.25;25.00;16.00
44933;PMS3003;30667;43.614;1.442;2023-02-28T08:01:58;26.50;23.25;14.25
44933;PMS3003;30667;43.614;1.442;2023-02-28T08:04:24;22.80;22.80;15.20
44933;PMS3003;30667;43.614;1.442;2023-02-28T08:06:49;27.00;22.00;13.00
44933;PMS3003;30667;43.614;1.442;2023-02-28T08:09:17;31.60;26.60;17.60
44933;PMS3003;30667;43.614;1.442;2023-02-28T08:11:42;26.00;24.75;14.25
44933;PMS3003;30667;43.614;1.442;2023-02-28T08:14:07;24.00;22.25;13.75
44933;PMS3003;30667;43.614;1.442;2023-02-28T08:16:33;21.50;21.25;13.50
44933;PMS3003;30667;43.614;1.442;2023-02-28T08:18:58;21.00;20.25;13.00
44933;PMS3003;30667;43.614;1.442;2023-02-28T08:21:24;28.00;25.25;17.00
44933;PMS3003;30667;43.614;1.442;2023-02-28T08:23:50;25.25;24.00;16.75
44933;PMS3003;30667;43.614;1.442;2023-02-28T08:26:16;26.40;23.80;13.20
44933;PMS3003;30667;43.614;1.442;2023-02-28T08:28:43;28.20;23.40;14.00
44933;PMS3003;30667;43.614;1.442;2023-02-28T08:31:10;24.00;21.40;13.40
44933;PMS3003;30667;43.614;1.442;2023-02-28T08:33:38;24.40;23.20;14.00
44933;PMS3003;30667;43.614;1.442;2023-02-28T08:36:04;22.60;20.20;12.00
44933;PMS3003;30667;43.614;1.442;2023-02-28T08:38:31;21.80;20.60;11.20
44933;PMS3003;30667;43.614;1.442;2023-02-28T08:41:06;20.00;19.75;11.00
44933;PMS3003;30667;43.614;1.442;2023-02-28T08:43:34;28.80;24.60;14.00
44933;PMS3003;30667;43.614;1.442;2023-02-28T08:46:00;23.40;20.20;12.00
44933;PMS3003;30667;43.614;1.442;2023-02-28T08:48:27;24.40;22.00;11.60
44933;PMS3003;30667;43.614;1.442;2023-02-28T08:50:55;20.80;19.20;12.20
44933;PMS3003;30667;43.614;1.442;2023-02-28T08:53:31;27.40;23.80;14.40
44933;PMS3003;30667;43.614;1.442;2023-02-28T08:56:01;18.20;17.20;11.00
44933;PMS3003;30667;43.614;1.442;2023-02-28T08:58:29;24.80;20.00;12.20
44933;PMS3003;30667;43.614;1.442;2023-02-28T09:00:55;20.60;19.40;12.00
44933;PMS3003;30667;43.614;1.442;2023-02-28T09:03:21;21.00;20.20;11.20
44933;PMS3003;30667;43.614;1.442;2023-02-28T09:05:54;24.60;21.80;11.00
44933;PMS3003;30667;43.614;1.442;2023-02-28T09:08:24;19.60;19.20;11.00
44933;PMS3003;30667;43.614;1.442;2023-02-28T09:10:51;25.20;22.20;14.00
44933;PMS3003;30667;43.614;1.442;2023-02-28T09:13:17;24.00;22.25;13.25
44933;PMS3003;30667;43.614;1.442;2023-02-28T09:15:43;24.60;23.00;14.00
44933;PMS3003;30667;43.614;1.442;2023-02-28T09:18:09;22.50;20.50;14.00
44933;PMS3003;30667;43.614;1.442;2023-02-28T09:20:37;21.50;18.00;12.00
44933;PMS3003;30667;43.614;1.442;2023-02-28T09:23:03;27.40;22.60;14.00
44933;PMS3003;30667;43.614;1.442;2023-02-28T09:25:29;26.00;23.00;14.00
44933;PMS3003;30667;43.614;1.442;2023-02-28T09:27:54;24.50;23.00;14.50
44933;PMS3003;30667;43.614;1.442;2023-02-28T09:30:19;24.75;21.75;13.25
44933;PMS3003;30667;43.614;1.442;2023-02-28T09:32:45;22.00;20.00;14.00
44933;PMS3003;30667;43.614;1.442;2023-02-28T09:35:17;24.80;23.00;13.80
44933;PMS3003;30667;43.614;1.442;2023-02-28T09:37:43;21.20;20.00;12.40
44933;PMS3003;30667;43.614;1.442;2023-02-28T09:40:09;22.50;20.50;11.75
44933;PMS3003;30667;43.614;1.442;2023-02-28T09:42:36;19.80;19.40;11.40
44933;PMS3003;30667;43.614;1.442;2023-02-28T09:45:02;20.00;19.75;11.00
44933;PMS3003;30667;43.614;1.442;2023-02-28T09:47:38;20.20;19.40;13.00
44933;PMS3003;30667;43.614;1.442;2023-02-28T09:52:51;21.20;21.20;13.80
44933;PMS3003;30667;43.614;1.442;2023-02-28T09:55:26;22.40;21.20;13.20
44933;PMS3003;30667;43.614;1.442;2023-02-28T09:57:58;47.60;41.20;27.40
44933;PMS3003;30667;43.614;1.442;2023-02-28T10:08:25;27.80;24.20;13.80
44933;PMS3003;30667;43.614;1.442;2023-02-28T10:10:58;25.20;23.00;13.80
44933;PMS3003;30667;43.614;1.442;2023-02-28T10:14:02;23.00;20.80;12.80
44933;PMS3003;30667;43.614;1.442;2023-02-28T10:22:01;24.20;21.20;11.60
44933;PMS3003;30667;43.614;1.442;2023-02-28T10:24:38;20.00;19.40;12.00
44933;PMS3003;30667;43.614;1.442;2023-02-28T10:27:14;24.40;22.00;13.00
44933;PMS3003;30667;43.614;1.442;2023-02-28T10:29:54;15.60;15.60;10.80
44933;PMS3003;30667;43.614;1.442;2023-02-28T10:32:22;23.40;19.80;10.80
44933;PMS3003;30667;43.614;1.442;2023-02-28T10:34:57;21.00;20.20;12.00
44933;PMS3003;30667;43.614;1.442;2023-02-28T10:37:25;22.20;20.00;12.00
44933;PMS3003;30667;43.614;1.442;2023-02-28T10:39:51;21.00;20.40;12.00
44933;PMS3003;30667;43.614;1.442;2023-02-28T10:42:21;22.75;21.00;12.75
44933;PMS3003;30667;43.614;1.442;2023-02-28T10:44:46;22.80;19.60;13.20
44933;PMS3003;30667;43.614;1.442;2023-02-28T10:47:15;20.75;19.75;12.50
44933;PMS3003;30667;43.614;1.442;2023-02-28T10:49:46;18.80;18.00;12.00
44933;PMS3003;30667;43.614;1.442;2023-02-28T10:52:14;17.80;17.80;10.20
44933;PMS3003;30667;43.614;1.442;2023-02-28T10:57:50;21.40;21.00;13.00
44933;PMS3003;30667;43.614;1.442;2023-02-28T11:00:18;29.60;23.00;13.80
44933;PMS3003;30667;43.614;1.442;2023-02-28T11:02:46;24.40;21.40;12.00
44933;PMS3003;30667;43.614;1.442;2023-02-28T11:07:59;19.80;18.20;12.00
44933;PMS3003;30667;43.614;1.442;2023-02-28T11:10:31;24.60;22.40;14.20
44933;PMS3003;30667;43.614;1.442;2023-02-28T11:12:59;21.00;20.80;12.60
44933;PMS3003;30667;43.614;1.442;2023-02-28T11:15:30;23.40;23.00;15.80
44933;PMS3003;30667;43.614;1.442;2023-02-28T11:20:37;19.80;19.40;12.00
44933;PMS3003;30667;43.614;1.442;2023-02-28T11:23:03;21.40;19.80;12.60
44933;PMS3003;30667;43.614;1.442;2023-02-28T11:25:36;18.00;18.00;10.80
44933;PMS3003;30667;43.614;1.442;2023-02-28T11:28:06;20.80;19.80;10.00
44933;PMS3003;30667;43.614;1.442;2023-02-28T11:35:58;24.60;20.20;12.20
44933;PMS3003;30667;43.614;1.442;2023-02-28T11:38:27;26.60;21.40;12.20
44933;PMS3003;30667;43.614;1.442;2023-02-28T11:46:30;22.40;21.80;12.20
44933;PMS3003;30667;43.614;1.442;2023-02-28T11:52:16;25.00;20.40;12.80
44933;PMS3003;30667;43.614;1.442;2023-02-28T11:54:59;17.80;15.60;9.40
44933;PMS3003;30667;43.614;1.442;2023-02-28T12:09:01;17.20;16.00;10.00
44933;PMS3003;30667;43.614;1.442;2023-02-28T12:11:50;18.80;17.00;10.00
44933;PMS3003;30667;43.614;1.442;2023-02-28T12:16:59;17.20;17.20;10.00
44933;PMS3003;30667;43.614;1.442;2023-02-28T12:22:39;16.80;15.40;10.00
44933;PMS3003;30667;43.614;1.442;2023-02-28T12:25:20;18.20;17.40;11.60
44933;PMS3003;30667;43.614;1.442;2023-02-28T12:28:06;21.60;18.80;10.60
44933;PMS3003;30667;43.614;1.442;2023-02-28T12:30:37;20.80;17.80;11.20
44933;PMS3003;30667;43.614;1.442;2023-02-28T12:33:14;21.80;20.20;12.20
44933;PMS3003;30667;43.614;1.442;2023-02-28T12:38:25;22.20;19.40;11.20
44933;PMS3003;30667;43.614;1.442;2023-02-28T12:41:00;21.80;21.60;12.00
44933;PMS3003;30667;43.614;1.442;2023-02-28T12:43:38;21.60;20.60;12.00
44933;PMS3003;30667;43.614;1.442;2023-02-28T12:46:17;16.60;16.60;9.80
44933;PMS3003;30667;43.614;1.442;2023-02-28T12:48:48;18.40;17.40;11.60
44933;PMS3003;30667;43.614;1.442;2023-02-28T12:51:18;21.20;19.00;12.40
44933;PMS3003;30667;43.614;1.442;2023-02-28T13:05:12;17.00;16.80;10.00
44933;PMS3003;30667;43.614;1.442;2023-02-28T13:10:06;18.00;16.00;9.25
44933;PMS3003;30667;43.614;1.442;2023-02-28T13:12:33;23.00;18.20;10.40
44933;PMS3003;30667;43.614;1.442;2023-02-28T13:15:19;19.40;17.00;11.00
44933;PMS3003;30667;43.614;1.442;2023-02-28T13:17:50;22.40;21.80;13.00
44933;PMS3003;30667;43.614;1.442;2023-02-28T13:20:26;20.80;17.80;10.00
44933;PMS3003;30667;43.614;1.442;2023-02-28T13:22:54;19.40;18.00;10.40
44933;PMS3003;30667;43.614;1.442;2023-02-28T13:27:47;19.00;18.50;11.25
44933;PMS3003;30667;43.614;1.442;2023-02-28T13:33:28;17.60;16.60;10.00
44933;PMS3003;30667;43.614;1.442;2023-02-28T13:44:07;18.50;17.25;9.00
44933;PMS3003;30667;43.614;1.442;2023-02-28T14:03:35;15.80;14.20;8.80
44933;PMS3003;30667;43.614;1.442;2023-02-28T14:11:39;15.60;13.40;7.80
44933;PMS3003;30667;43.614;1.442;2023-02-28T14:14:06;19.00;14.80;9.00
44933;PMS3003;30667;43.614;1.442;2023-02-28T14:19:15;19.00;17.00;10.00
44933;PMS3003;30667;43.614;1.442;2023-02-28T14:30:36;20.60;19.60;10.80
44933;PMS3003;30667;43.614;1.442;2023-02-28T14:36:07;17.00;15.80;8.80
44933;PMS3003;30667;43.614;1.442;2023-02-28T14:38:56;19.00;18.60;10.00
44933;PMS3003;30667;43.614;1.442;2023-02-28T14:41:32;18.40;17.40;9.20
44933;PMS3003;30667;43.614;1.442;2023-02-28T14:44:13;19.20;15.60;8.20
44933;PMS3003;30667;43.614;1.442;2023-02-28T14:46:42;18.40;15.80;8.80
44933;PMS3003;30667;43.614;1.442;2023-02-28T14:49:28;12.60;10.80;7.00
44933;PMS3003;30667;43.614;1.442;2023-02-28T14:52:07;15.60;15.60;8.80
44933;PMS3003;30667;43.614;1.442;2023-02-28T14:54:41;19.80;17.00;10.00
44933;PMS3003;30667;43.614;1.442;2023-02-28T14:57:20;19.80;19.20;10.40
44933;PMS3003;30667;43.614;1.442;2023-02-28T14:59:57;16.20;16.20;9.40
44933;PMS3003;30667;43.614;1.442;2023-02-28T15:02:37;15.80;15.80;8.80
44933;PMS3003;30667;43.614;1.442;2023-02-28T15:07:44;17.00;16.40;8.00
44933;PMS3003;30667;43.614;1.442;2023-02-28T15:10:13;18.20;16.20;9.00
44933;PMS3003;30667;43.614;1.442;2023-02-28T15:12:45;13.40;13.20;8.20
44933;PMS3003;30667;43.614;1.442;2023-02-28T15:15:19;15.60;13.60;8.00
44933;PMS3003;30667;43.614;1.442;2023-02-28T15:17:47;16.20;16.00;8.00
44933;PMS3003;30667;43.614;1.442;2023-02-28T15:20:18;18.80;16.00;10.00
44933;PMS3003;30667;43.614;1.442;2023-02-28T15:22:44;15.80;14.60;7.60
44933;PMS3003;30667;43.614;1.442;2023-02-28T15:25:13;19.20;16.40;9.00
44933;PMS3003;30667;43.614;1.442;2023-02-28T15:27:44;16.60;13.80;7.60
44933;PMS3003;30667;43.614;1.442;2023-02-28T15:30:17;16.60;15.40;9.40
44933;PMS3003;30667;43.614;1.442;2023-02-28T15:35:36;10.80;10.40;5.00
44933;PMS3003;30667;43.614;1.442;2023-02-28T15:38:04;16.80;15.40;8.60
44933;PMS3003;30667;43.614;1.442;2023-02-28T15:40:42;16.80;16.20;8.60
44933;PMS3003;30667;43.614;1.442;2023-02-28T15:43:16;13.20;13.00;7.40
44933;PMS3003;30667;43.614;1.442;2023-02-28T15:46:09;19.40;15.40;8.40
44933;PMS3003;30667;43.614;1.442;2023-02-28T15:51:16;17.40;15.00;8.20
44933;PMS3003;30667;43.614;1.442;2023-02-28T15:53:48;13.80;11.80;7.20
44933;PMS3003;30667;43.614;1.442;2023-02-28T15:56:27;18.20;16.60;8.20
44933;PMS3003;30667;43.614;1.442;2023-02-28T15:58:59;13.00;12.60;7.00
44933;PMS3003;30667;43.614;1.442;2023-02-28T16:01:46;14.20;13.00;7.20
44933;PMS3003;30667;43.614;1.442;2023-02-28T16:04:19;14.25;13.25;7.25
44933;PMS3003;30667;43.614;1.442;2023-02-28T16:09:30;15.60;14.20;7.40
44933;PMS3003;30667;43.614;1.442;2023-02-28T16:11:56;13.50;13.00;8.00
44933;PMS3003;30667;43.614;1.442;2023-02-28T16:14:29;15.20;14.00;10.00
44933;PMS3003;30667;43.614;1.442;2023-02-28T16:17:03;16.40;16.00;8.60
44933;PMS3003;30667;43.614;1.442;2023-02-28T16:19:31;13.00;13.00;7.20
44933;PMS3003;30667;43.614;1.442;2023-02-28T16:21:57;14.60;13.40;8.00
44933;PMS3003;30667;43.614;1.442;2023-02-28T16:24:23;14.00;13.00;7.25
44933;PMS3003;30667;43.614;1.442;2023-02-28T16:26:48;18.50;17.75;9.75
44933;PMS3003;30667;43.614;1.442;2023-02-28T16:29:24;14.60;14.20;7.80
44933;PMS3003;30667;43.614;1.442;2023-02-28T16:31:54;16.60;15.20;9.40
44933;PMS3003;30667;43.614;1.442;2023-02-28T16:34:19;16.75;16.25;10.00
44933;PMS3003;30667;43.614;1.442;2023-02-28T16:36:46;15.80;15.80;9.40
44933;PMS3003;30667;43.614;1.442;2023-02-28T16:39:12;19.00;17.20;10.00
44933;PMS3003;30667;43.614;1.442;2023-02-28T16:41:38;15.00;13.50;8.00
44933;PMS3003;30667;43.614;1.442;2023-02-28T16:44:09;17.60;17.00;10.20
44933;PMS3003;30667;43.614;1.442;2023-02-28T16:46:39;17.60;17.20;10.60
44933;PMS3003;30667;43.614;1.442;2023-02-28T16:49:05;18.00;17.20;10.60
44933;PMS3003;30667;43.614;1.442;2023-02-28T16:51:37;18.00;16.60;9.00
44933;PMS3003;30667;43.614;1.442;2023-02-28T16:54:03;22.00;20.75;11.25